createdAt,value
2018-01-12T00:02:10.626Z,60.58
2018-01-12T00:04:38.765Z,58.72
2018-01-12T00:07:06.906Z,56.70
2018-01-12T00:09:35.073Z,57.25
2018-01-12T00:12:03.218Z,55.03
2018-01-12T00:14:31.384Z,57.60
2018-01-12T00:16:59.520Z,59.78
2018-01-12T00:19:27.681Z,60.50
2018-01-12T00:21:55.832Z,57.15
2018-01-12T00:24:23.994Z,57.28
2018-01-12T00:26:52.143Z,61.22
2018-01-12T00:29:21.065Z,60.65
2018-01-12T00:31:49.206Z,63.33
2018-01-12T00:34:18.134Z,64.47
2018-01-12T00:36:46.261Z,66.78
2018-01-12T00:39:15.195Z,61.15
2018-01-12T00:41:43.334Z,65.12
2018-01-12T00:44:12.269Z,65.87
2018-01-12T00:46:40.406Z,65.43
2018-01-12T00:49:08.568Z,68.32
2018-01-12T00:51:36.709Z,71.28
2018-01-12T00:54:04.866Z,62.30
2018-01-12T00:56:33.005Z,64.85
2018-01-12T00:59:01.169Z,68.82
2018-01-12T01:01:29.307Z,66.53
2018-01-12T01:03:57.475Z,65.95
2018-01-12T01:06:25.606Z,67.95
2018-01-12T01:08:53.767Z,64.85
2018-01-12T01:11:21.906Z,64.78
2018-01-12T01:13:50.068Z,66.55
2018-01-12T01:16:18.208Z,66.05
2018-01-12T01:18:46.365Z,61.50
2018-01-12T01:21:14.506Z,60.28
2018-01-12T01:23:42.675Z,63.03
2018-01-12T01:26:10.811Z,68.43
2018-01-12T01:28:38.945Z,61.15
2018-01-12T01:31:07.115Z,69.03
2018-01-12T01:33:35.251Z,67.18
2018-01-12T01:36:03.415Z,71.32
2018-01-12T01:38:31.549Z,68.57
2018-01-12T01:40:59.713Z,69.50
2018-01-12T01:43:27.851Z,68.25
2018-01-12T01:45:56.009Z,69.05
2018-01-12T01:48:35.861Z,67.40
2018-01-12T01:51:04.020Z,69.70
2018-01-12T01:53:32.162Z,66.70
2018-01-12T01:56:00.330Z,65.93
2018-01-12T01:58:28.472Z,70.68
2018-01-12T02:00:56.637Z,63.28
2018-01-12T02:03:24.773Z,63.40
2018-01-12T02:05:52.930Z,65.53
2018-01-12T02:08:21.065Z,64.65
2018-01-12T02:10:49.226Z,60.92
2018-01-12T02:13:17.363Z,64.62
2018-01-12T02:15:45.522Z,66.05
2018-01-12T02:18:13.669Z,64.95
2018-01-12T02:20:41.834Z,59.67
2018-01-12T02:23:09.969Z,58.92
2018-01-12T02:25:38.133Z,56.58
2018-01-12T02:28:06.269Z,55.38
2018-01-12T02:30:34.442Z,62.33
2018-01-12T02:33:03.346Z,59.25
2018-01-12T02:35:31.490Z,54.53
2018-01-12T02:37:59.654Z,55.92
2018-01-12T02:40:27.793Z,59.72
2018-01-12T02:42:55.958Z,55.47
2018-01-12T02:45:24.096Z,56.53
2018-01-12T02:47:52.257Z,62.05
2018-01-12T02:50:20.393Z,60.08
2018-01-12T02:52:48.558Z,55.40
2018-01-12T02:55:16.699Z,54.42
2018-01-12T02:57:45.627Z,57.42
2018-01-12T03:00:13.758Z,59.60
2018-01-12T03:02:42.687Z,56.70
2018-01-12T03:05:10.823Z,52.88
2018-01-12T03:07:39.752Z,53.63
2018-01-12T03:10:07.884Z,55.08
2018-01-12T03:12:36.819Z,55.70
2018-01-12T03:15:04.965Z,58.72
2018-01-12T03:17:33.894Z,56.95
2018-01-12T03:20:02.027Z,56.80
2018-01-12T03:22:30.948Z,54.58
2018-01-12T03:24:59.091Z,60.28
2018-01-12T03:27:28.022Z,60.55
2018-01-12T03:29:56.166Z,55.72
2018-01-12T03:32:25.095Z,53.60
2018-01-12T03:34:53.225Z,52.45
2018-01-12T03:37:22.149Z,51.85
2018-01-12T03:39:50.287Z,50.22
2018-01-12T03:42:19.208Z,51.42
2018-01-12T03:44:47.353Z,51.08
2018-01-12T03:47:16.365Z,53.00
2018-01-12T03:49:44.509Z,48.28
2018-01-12T03:52:12.668Z,49.33
2018-01-12T03:54:40.803Z,49.38
2018-01-12T03:57:08.971Z,51.03
2018-01-12T03:59:37.104Z,53.90
2018-01-12T04:02:05.266Z,50.67
2018-01-12T04:04:33.401Z,51.63
2018-01-12T04:07:01.565Z,52.05
2018-01-12T04:09:29.710Z,53.13
2018-01-12T04:11:57.878Z,53.05
2018-01-12T04:14:26.021Z,52.10
2018-01-12T04:16:54.193Z,52.35
2018-01-12T04:19:22.332Z,52.92
2018-01-12T04:21:50.473Z,55.40
2018-01-12T04:24:18.638Z,58.15
2018-01-12T04:26:47.540Z,51.42
2018-01-12T04:29:15.700Z,53.83
2018-01-12T04:31:44.615Z,52.88
2018-01-12T04:34:12.774Z,49.65
2018-01-12T04:36:41.679Z,53.97
2018-01-12T04:39:09.844Z,53.45
2018-01-12T04:41:38.750Z,51.65
2018-01-12T04:44:06.909Z,52.45
2018-01-12T04:46:35.813Z,53.45
2018-01-12T04:49:03.975Z,53.00
2018-01-12T04:51:32.872Z,51.83
2018-01-12T04:54:01.038Z,50.28
2018-01-12T04:56:29.941Z,53.00
2018-01-12T04:58:58.115Z,50.60
2018-01-12T05:01:26.254Z,49.70
2018-01-12T05:03:54.463Z,51.17
2018-01-12T05:06:22.594Z,48.92
2018-01-12T05:08:50.772Z,48.08
2018-01-12T05:11:18.910Z,51.37
2018-01-12T05:13:47.083Z,51.40
2018-01-12T05:16:15.221Z,50.83
2018-01-12T05:18:44.155Z,50.30
2018-01-12T05:21:12.292Z,46.92
2018-01-12T05:23:40.459Z,47.67
2018-01-12T05:26:08.594Z,49.70
2018-01-12T05:28:36.754Z,46.75
2018-01-12T05:31:04.889Z,48.20
2018-01-12T05:33:33.064Z,45.42
2018-01-12T05:36:01.203Z,46.88
2018-01-12T05:38:29.342Z,47.42
2018-01-12T05:40:57.503Z,48.78
2018-01-12T05:43:25.637Z,45.30
2018-01-12T05:45:53.801Z,48.72
2018-01-12T05:48:21.925Z,45.28
2018-01-12T05:50:50.107Z,50.78
2018-01-12T05:53:18.257Z,45.22
2018-01-12T05:55:46.423Z,45.30
2018-01-12T05:58:14.557Z,45.88
2018-01-12T06:00:54.467Z,48.97
2018-01-12T06:03:34.398Z,50.45
2018-01-12T06:06:21.078Z,44.72
2018-01-12T06:08:49.237Z,41.35
2018-01-12T06:11:17.394Z,41.03
2018-01-12T06:13:45.524Z,44.30
2018-01-12T06:16:13.686Z,41.28
2018-01-12T06:18:41.821Z,38.72
2018-01-12T06:21:09.986Z,40.47
2018-01-12T06:23:38.114Z,38.17
2018-01-12T06:26:06.276Z,41.65
2018-01-12T06:28:34.421Z,42.85
2018-01-12T06:31:02.586Z,43.30
2018-01-12T06:33:30.723Z,45.97
2018-01-12T06:35:58.882Z,40.22
2018-01-12T06:38:27.027Z,37.30
2018-01-12T06:40:55.194Z,31.95
2018-01-12T06:43:23.321Z,33.70
2018-01-12T06:45:51.481Z,43.97
2018-01-12T06:48:19.637Z,39.22
2018-01-12T06:50:48.570Z,39.47
2018-01-12T06:53:16.705Z,38.55
2018-01-12T06:55:45.638Z,36.38
2018-01-12T06:58:13.768Z,38.72
2018-01-12T07:00:42.720Z,38.83
2018-01-12T07:03:10.856Z,36.38
2018-01-12T07:05:39.028Z,36.47
2018-01-12T07:08:07.165Z,37.25
2018-01-12T07:10:35.326Z,40.55
2018-01-12T07:13:03.456Z,37.30
2018-01-12T07:15:31.615Z,39.47
2018-01-12T07:17:59.855Z,38.60
2018-01-12T07:20:39.688Z,34.50
2018-01-12T07:23:19.581Z,34.28
2018-01-12T07:25:47.760Z,32.13
2018-01-12T07:28:15.902Z,35.13
2018-01-12T07:30:44.065Z,32.80
2018-01-12T07:33:12.196Z,31.75
2018-01-12T07:35:40.349Z,31.87
2018-01-12T07:38:08.501Z,33.63
2018-01-12T07:40:36.658Z,29.80
2018-01-12T07:43:04.793Z,35.10
2018-01-12T07:45:32.959Z,35.42
2018-01-12T07:48:01.092Z,34.10
2018-01-12T07:50:30.020Z,31.80
2018-01-12T07:53:03.875Z,26.83
2018-01-12T07:55:32.041Z,29.15
2018-01-12T07:58:00.180Z,27.83
2018-01-12T08:00:34.025Z,28.35
2018-01-12T08:03:03.983Z,28.48
2018-01-12T08:05:32.137Z,26.52
2018-01-12T08:08:00.273Z,25.58
2018-01-12T08:10:28.448Z,26.92
2018-01-12T08:12:56.576Z,30.17
2018-01-12T08:15:24.747Z,27.08
2018-01-12T08:17:52.878Z,28.50
2018-01-12T08:20:21.051Z,24.30
2018-01-12T08:22:49.180Z,27.58
2018-01-12T08:25:17.333Z,25.40
2018-01-12T08:27:45.473Z,21.87
2018-01-12T08:30:13.638Z,26.90
2018-01-12T08:32:41.766Z,27.10
2018-01-12T08:35:09.900Z,26.25
2018-01-12T08:37:38.065Z,26.20
2018-01-12T08:40:06.201Z,26.75
2018-01-12T08:42:34.357Z,29.33
2018-01-12T08:45:02.498Z,28.02
2018-01-12T08:47:30.665Z,27.02
2018-01-12T08:49:58.802Z,27.30
2018-01-12T08:52:26.957Z,29.20
2018-01-12T08:54:55.095Z,28.00
2018-01-12T08:57:23.261Z,26.25
2018-01-12T08:59:51.386Z,27.42
2018-01-12T09:02:19.537Z,30.67
2018-01-12T09:04:47.672Z,24.60
2018-01-12T09:07:15.845Z,28.85
2018-01-12T09:09:43.989Z,30.85
2018-01-12T09:12:12.147Z,28.73
2018-01-12T09:14:52.896Z,29.95
2018-01-12T09:20:33.720Z,28.30
2018-01-12T09:23:13.565Z,27.40
2018-01-12T09:25:41.724Z,28.92
2018-01-12T09:28:09.866Z,31.30
2018-01-12T09:30:38.021Z,27.70
2018-01-12T09:33:06.154Z,27.55
2018-01-12T09:35:34.284Z,26.95
2018-01-12T09:38:27.129Z,24.77
2018-01-12T09:40:55.285Z,25.12
2018-01-12T09:43:23.417Z,25.80
2018-01-12T09:45:51.569Z,24.17
2018-01-12T09:48:37.937Z,24.40
2018-01-12T09:51:06.068Z,22.00
2018-01-12T09:53:34.228Z,22.35
2018-01-12T09:56:02.357Z,23.75
2018-01-12T09:58:30.512Z,23.35
2018-01-12T10:01:03.453Z,22.33
2018-01-12T10:03:31.633Z,20.40
2018-01-12T10:05:59.763Z,21.52
2018-01-12T10:08:27.969Z,20.77
2018-01-12T10:10:56.119Z,20.90
2018-01-12T10:13:24.277Z,21.92
2018-01-12T10:15:52.421Z,19.00
2018-01-12T10:18:35.467Z,20.45
2018-01-12T10:21:06.438Z,18.60
2018-01-12T10:23:34.599Z,17.37
2018-01-12T10:26:02.744Z,17.83
2018-01-12T10:28:30.896Z,20.70
2018-01-12T10:30:59.033Z,19.55
2018-01-12T10:36:47.178Z,19.45
2018-01-12T10:39:21.193Z,18.67
2018-01-12T10:42:01.038Z,16.77
2018-01-12T10:44:29.194Z,16.87
2018-01-12T10:47:16.161Z,18.12
2018-01-12T10:49:56.937Z,17.73
2018-01-12T10:52:31.825Z,18.45
2018-01-12T10:54:59.997Z,18.33
2018-01-12T10:57:28.137Z,18.75
2018-01-12T10:59:56.311Z,19.05
2018-01-12T11:02:24.455Z,20.37
2018-01-12T11:04:52.622Z,19.90
2018-01-12T11:07:21.521Z,21.20
2018-01-12T11:09:49.652Z,20.90
2018-01-12T11:12:17.815Z,21.85
2018-01-12T11:14:45.944Z,22.85
2018-01-12T11:17:14.107Z,20.60
2018-01-12T11:19:42.245Z,23.85
2018-01-12T11:22:10.408Z,23.67
2018-01-12T11:24:38.546Z,26.30
2018-01-12T11:27:06.716Z,25.77
2018-01-12T11:29:34.850Z,25.98
2018-01-12T11:32:03.010Z,29.23
2018-01-12T11:34:31.133Z,27.90
2018-01-12T11:36:59.293Z,28.08
2018-01-12T11:39:27.422Z,28.87
2018-01-12T11:41:55.546Z,24.33
2018-01-12T11:44:23.706Z,28.20
2018-01-12T11:46:51.859Z,27.33
2018-01-12T11:49:20.032Z,26.98
2018-01-12T11:51:48.181Z,25.35
2018-01-12T11:54:16.365Z,25.48
2018-01-12T11:56:44.496Z,26.50
2018-01-12T11:59:12.649Z,26.60
2018-01-12T12:01:41.545Z,25.75
2018-01-12T12:04:09.709Z,26.35
2018-01-12T12:06:38.609Z,23.90
2018-01-12T12:09:06.786Z,24.77
2018-01-12T12:11:35.714Z,26.95
2018-01-12T12:14:03.873Z,24.98
2018-01-12T12:16:32.021Z,23.48
2018-01-12T12:19:00.172Z,21.80
2018-01-12T12:21:28.332Z,23.60
2018-01-12T12:23:56.500Z,23.45
2018-01-12T12:26:24.648Z,22.62
2018-01-12T12:28:52.799Z,23.17
2018-01-12T12:31:20.978Z,24.45
2018-01-12T12:33:49.140Z,22.48
2018-01-12T12:36:17.272Z,23.42
2018-01-12T12:38:45.478Z,20.40
2018-01-12T12:41:14.401Z,19.37
2018-01-12T12:43:42.536Z,19.70
2018-01-12T12:46:10.696Z,19.52
2018-01-12T12:48:38.830Z,21.60
2018-01-12T12:51:07.025Z,21.17
2018-01-12T12:53:35.392Z,21.33
2018-01-12T12:56:03.554Z,20.98
2018-01-12T12:58:31.686Z,21.90
2018-01-12T13:00:59.994Z,21.95
2018-01-12T13:03:28.130Z,21.23
2018-01-12T13:05:56.281Z,23.85
2018-01-12T13:08:24.409Z,22.10
2018-01-12T13:10:52.571Z,24.77
2018-01-12T13:13:21.496Z,24.67
2018-01-12T13:15:49.649Z,25.58
2018-01-12T13:18:17.797Z,24.25
2018-01-12T13:20:45.970Z,22.92
2018-01-12T13:23:14.105Z,23.25
2018-01-12T13:25:42.269Z,25.00
2018-01-12T13:28:10.392Z,24.92
2018-01-12T13:30:38.534Z,26.60
2018-01-12T13:33:06.691Z,27.70
2018-01-12T13:35:34.818Z,27.37
2018-01-12T13:38:03.744Z,27.45
2018-01-12T13:40:31.882Z,24.92
2018-01-12T13:43:00.802Z,25.05
2018-01-12T13:45:28.924Z,25.88
2018-01-12T13:47:57.080Z,24.58
2018-01-12T13:50:25.225Z,25.80
2018-01-12T13:52:53.485Z,25.02
2018-01-12T13:55:21.612Z,27.65
2018-01-12T13:57:49.785Z,24.67
2018-01-12T14:00:17.917Z,25.10
2018-01-12T14:02:46.073Z,27.02
2018-01-12T14:05:14.220Z,21.83
2018-01-12T14:07:42.374Z,24.27
2018-01-12T14:10:10.529Z,22.10
2018-01-12T14:12:38.683Z,22.62
2018-01-12T14:15:06.907Z,23.70
2018-01-12T14:17:35.064Z,22.98
2018-01-12T14:20:03.203Z,22.23
2018-01-12T14:22:31.371Z,23.90
2018-01-12T14:24:59.537Z,20.75
2018-01-12T14:27:27.670Z,21.85
2018-01-12T14:29:55.834Z,21.42
2018-01-12T14:32:23.973Z,22.37
2018-01-12T14:34:52.138Z,24.00
2018-01-12T14:37:20.262Z,23.20
2018-01-12T14:39:48.417Z,22.65
2018-01-12T14:42:16.546Z,22.75
2018-01-12T14:44:44.781Z,20.75
2018-01-12T14:47:12.957Z,22.77
2018-01-12T14:49:41.129Z,22.20
2018-01-12T14:52:09.297Z,22.33
2018-01-12T14:54:37.476Z,21.52
2018-01-12T14:57:05.612Z,20.35
2018-01-12T14:59:33.779Z,21.60
2018-01-12T15:02:01.922Z,22.00
2018-01-12T15:04:30.841Z,22.67
2018-01-12T15:06:59.005Z,19.40
2018-01-12T15:09:27.145Z,23.45
2018-01-12T15:11:55.317Z,20.35
2018-01-12T15:14:23.445Z,22.27
2018-01-12T15:16:51.610Z,22.67
2018-01-12T15:19:19.740Z,19.62
2018-01-12T15:21:47.903Z,24.25
2018-01-12T15:24:16.038Z,22.90
2018-01-12T15:26:44.193Z,22.52
2018-01-12T15:29:12.616Z,22.70
2018-01-12T15:31:41.075Z,23.27
2018-01-12T15:34:09.258Z,24.70
2018-01-12T15:36:37.394Z,21.50
2018-01-12T15:39:07.038Z,24.67
2018-01-12T15:41:35.205Z,25.10
2018-01-12T15:44:03.337Z,23.35
2018-01-12T15:46:31.488Z,22.17
2018-01-12T15:48:59.699Z,22.17
2018-01-12T15:51:27.890Z,23.95
2018-01-12T15:53:56.055Z,21.00
2018-01-12T15:56:24.228Z,19.77
2018-01-12T15:58:52.373Z,22.02
2018-01-12T16:01:20.538Z,23.45
2018-01-12T16:03:48.691Z,20.75
2018-01-12T16:06:16.890Z,20.98
2018-01-12T16:08:45.070Z,20.52
2018-01-12T16:11:13.220Z,20.95
2018-01-12T16:13:41.374Z,22.08
2018-01-12T16:16:09.503Z,22.20
2018-01-12T16:18:37.654Z,20.15
2018-01-12T16:21:05.801Z,21.30
2018-01-12T16:23:33.978Z,24.52
2018-01-12T16:26:02.117Z,22.15
2018-01-12T16:28:30.272Z,21.80
2018-01-12T16:30:59.165Z,22.10
2018-01-12T16:33:27.320Z,21.37
2018-01-12T16:35:56.258Z,24.02
2018-01-12T16:38:24.393Z,21.90
2018-01-12T16:40:53.334Z,22.48
2018-01-12T16:43:21.471Z,21.52
2018-01-12T16:45:50.389Z,23.58
2018-01-12T16:48:18.522Z,22.77
2018-01-12T16:50:47.456Z,21.12
2018-01-12T16:53:15.619Z,22.25
2018-01-12T16:55:43.749Z,23.98
2018-01-12T16:58:11.917Z,21.60
2018-01-12T17:00:40.056Z,22.33
2018-01-12T17:03:08.200Z,23.00
2018-01-12T17:05:36.363Z,22.75
2018-01-12T17:08:04.503Z,24.23
2018-01-12T17:10:32.661Z,24.85
2018-01-12T17:13:00.796Z,23.58
2018-01-12T17:15:28.970Z,25.52
2018-01-12T17:17:57.144Z,25.35
2018-01-12T17:20:25.315Z,25.90
2018-01-12T17:22:53.449Z,28.05
2018-01-12T17:25:21.600Z,25.62
2018-01-12T17:27:49.737Z,28.10
2018-01-12T17:30:17.905Z,27.00
2018-01-12T17:32:46.054Z,28.98
2018-01-12T17:35:14.822Z,27.73
2018-01-12T17:37:43.050Z,29.42
2018-01-12T17:40:11.208Z,28.52
2018-01-12T17:42:39.361Z,25.60
2018-01-12T17:45:07.558Z,28.17
2018-01-12T17:47:35.798Z,27.65
2018-01-12T17:50:03.975Z,30.42
2018-01-12T17:52:32.243Z,27.15
2018-01-12T17:55:00.431Z,28.27
2018-01-12T17:57:28.638Z,28.27
2018-01-12T17:59:56.922Z,29.08
2018-01-12T18:02:25.086Z,27.20
2018-01-12T18:04:53.230Z,28.30
2018-01-12T18:07:21.470Z,28.65
2018-01-12T18:09:49.843Z,29.73
2018-01-12T18:12:18.018Z,29.95
2018-01-12T18:14:46.154Z,32.55
2018-01-12T18:17:14.748Z,30.65
2018-01-12T18:19:43.193Z,33.88
2018-01-12T18:22:11.674Z,32.22
2018-01-12T18:24:40.821Z,36.47
2018-01-12T18:27:09.728Z,32.88
2018-01-12T18:29:38.186Z,31.27
2018-01-12T18:32:06.362Z,29.35
2018-01-12T18:34:34.887Z,28.70
2018-01-12T18:37:03.092Z,33.15
2018-01-12T18:39:31.323Z,33.25
2018-01-12T18:41:59.991Z,33.78
2018-01-12T18:44:28.592Z,31.40
2018-01-12T18:46:56.826Z,33.40
2018-01-12T18:49:25.256Z,31.60
2018-01-12T18:51:53.597Z,30.15
2018-01-12T18:54:21.748Z,29.90
2018-01-12T18:56:49.935Z,31.23
2018-01-12T18:59:18.114Z,33.85
2018-01-12T19:01:46.494Z,30.17
2018-01-12T19:04:14.761Z,30.92
2018-01-12T19:06:43.146Z,30.33
2018-01-12T19:09:11.305Z,33.22
2018-01-12T19:11:39.752Z,30.73
2018-01-12T19:14:08.090Z,30.48
2018-01-12T19:16:36.328Z,32.90
2018-01-12T19:19:05.224Z,29.52
2018-01-12T19:21:33.394Z,31.77
2018-01-12T19:24:02.303Z,30.90
2018-01-12T19:26:30.542Z,29.25
2018-01-12T19:28:58.753Z,30.70
2018-01-12T19:31:26.958Z,30.90
2018-01-12T19:33:55.126Z,30.15
2018-01-12T19:36:23.308Z,30.05
2018-01-12T19:38:51.454Z,32.20
2018-01-12T19:41:19.647Z,34.17
2018-01-12T19:43:47.793Z,31.33
2018-01-12T19:46:15.976Z,30.70
2018-01-12T19:48:44.120Z,31.35
2018-01-12T19:51:12.335Z,34.15
2018-01-12T19:53:40.485Z,33.33
2018-01-12T19:56:08.727Z,28.98
2018-01-12T19:58:37.107Z,31.40
2018-01-12T20:01:05.322Z,32.05
2018-01-12T20:03:33.465Z,33.97
2018-01-12T20:06:01.802Z,32.47
2018-01-12T20:08:30.147Z,32.35
2018-01-12T20:10:59.086Z,37.63
2018-01-12T20:13:27.224Z,33.05
2018-01-12T20:15:55.404Z,34.85
2018-01-12T20:18:23.541Z,31.23
2018-01-12T20:20:51.704Z,32.05
2018-01-12T20:23:19.883Z,32.50
2018-01-12T20:25:48.045Z,31.20
2018-01-12T20:28:16.180Z,34.22
2018-01-12T20:30:44.330Z,28.12
2018-01-12T20:33:13.254Z,31.90
2018-01-12T20:35:41.427Z,30.50
2018-01-12T20:38:09.608Z,31.65
2018-01-12T20:40:37.776Z,28.95
2018-01-12T20:43:06.109Z,29.80
2018-01-12T20:45:34.349Z,29.00
2018-01-12T20:48:02.523Z,31.35
2018-01-12T20:50:30.683Z,27.40
2018-01-12T20:52:58.900Z,28.87
2018-01-12T20:55:28.417Z,29.25
2018-01-12T20:57:57.343Z,30.15
2018-01-12T21:00:25.484Z,27.40
2018-01-12T21:02:54.430Z,28.05
2018-01-12T21:05:22.617Z,30.33
2018-01-12T21:07:50.795Z,29.05
2018-01-12T21:10:18.938Z,26.70
2018-01-12T21:12:47.096Z,28.65
2018-01-12T21:15:15.287Z,29.70
2018-01-12T21:17:43.454Z,26.95
2018-01-12T21:20:11.904Z,28.70
2018-01-12T21:22:40.872Z,28.20
2018-01-12T21:25:09.004Z,30.25
2018-01-12T21:27:37.165Z,29.67
2018-01-12T21:30:05.314Z,29.17
2018-01-12T21:32:33.485Z,29.95
2018-01-12T21:35:02.438Z,31.05
2018-01-12T21:37:30.609Z,29.10
2018-01-12T21:39:58.748Z,30.62
2018-01-12T21:42:26.914Z,30.98
2018-01-12T21:44:55.049Z,29.90
2018-01-12T21:47:23.215Z,30.12
2018-01-12T21:49:51.354Z,30.45
2018-01-12T21:52:19.513Z,30.62
2018-01-12T21:54:48.409Z,28.60
2018-01-12T21:57:16.578Z,27.30
2018-01-12T21:59:44.964Z,31.45
2018-01-12T22:02:13.168Z,29.17
2018-01-12T22:04:41.293Z,29.63
2018-01-12T22:07:09.458Z,30.55
2018-01-12T22:09:37.597Z,29.27
2018-01-12T22:12:05.756Z,30.17
2018-01-12T22:14:33.917Z,32.28
2018-01-12T22:17:02.086Z,30.25
2018-01-12T22:19:30.233Z,28.80
2018-01-12T22:21:58.388Z,32.35
2018-01-12T22:24:27.299Z,32.25
2018-01-12T22:26:55.463Z,34.08
2018-01-12T22:29:23.602Z,31.80
2018-01-12T22:31:51.859Z,32.28
2018-01-12T22:34:19.997Z,31.58
2018-01-12T22:36:48.161Z,33.00
2018-01-12T22:39:16.352Z,32.65
2018-01-12T22:41:45.285Z,31.90
2018-01-12T22:44:13.453Z,31.17
2018-01-12T22:46:41.655Z,34.20
2018-01-12T22:49:09.793Z,30.58
2018-01-12T22:51:37.947Z,34.25
2018-01-12T22:54:06.079Z,31.37
2018-01-12T22:56:34.273Z,33.42
2018-01-12T22:59:02.406Z,32.85
2018-01-12T23:01:30.610Z,32.58
2018-01-12T23:03:58.786Z,34.85
2018-01-12T23:06:26.924Z,34.00
2018-01-12T23:08:55.085Z,31.75
2018-01-12T23:11:23.233Z,35.10
2018-01-12T23:13:51.412Z,34.08
2018-01-12T23:16:19.552Z,35.70
2018-01-12T23:18:48.477Z,32.75
2018-01-12T23:21:16.608Z,37.35
2018-01-12T23:23:45.553Z,36.05
2018-01-12T23:26:13.689Z,35.55
2018-01-12T23:28:42.643Z,33.80
2018-01-12T23:31:10.778Z,34.22
2018-01-12T23:33:38.946Z,40.42
2018-01-12T23:36:07.077Z,37.35
2018-01-12T23:38:35.238Z,37.75
2018-01-12T23:41:03.376Z,38.85
2018-01-12T23:43:31.561Z,37.80
2018-01-12T23:45:59.702Z,39.47
2018-01-12T23:48:27.893Z,39.58
2018-01-12T23:50:56.044Z,40.08
2018-01-12T23:53:24.221Z,36.17
2018-01-12T23:55:52.380Z,41.72
2018-01-12T23:58:21.299Z,38.15
